Terminal Aerodrome Forecast
Issued by NWS North Platte, NE

Home | Current Version | Previous Version | Graphics & Text | Print | Product List | Glossary On
Versions: 1 2 3 4 5 6 7 8 9 10 11 12 13 14 15 16 17 18
000
FTUS43 KLBF 201000 AAC
TAFVTN
TAF AMD
KVTN 201013Z 2010/2106 VRB06KT 6SM -SN SCT009 BKN011 OVC029
      TEMPO 2010/2011 SCT011 OVC029
     FM201800 36009KT P6SM OVC025
     FM210000 04006KT P6SM OVC050=

USA.gov is the U.S. government's official web portal to all federal, state and local government web resources and services.